メインページ
METAR-TAF:

METAR-TAF

空港 :

ハマド国際空港

ドーハ, カタール

緯度: 25-16-23N, 経度: 51-36-29E, 海抜: 4m

現時点の気象観測

当レポートは42分前の05:00(UTC)に作成
の風 10kt
気温 25°C
湿度 65%
気圧 1014 hPa
視程10km以上
1,500メートル以下は雲なし、積乱雲なし

METAR: OTHH 040500Z AUTO 36010KT CAVOK 25/18 Q1014 NOSIG

時間: 08:42 (05:42 UTC)

予報

当レポートは42分前の05:00(UTC)に作成
予報は04日の 06時(UTC)から 05日の 12時(UTC)まで有効
北/北東の風 12kt
視程10km以上
1,500メートル以下は雲なし、積乱雲なし
04日の 19時(UTC)から 04日の 21時(UTC)まで徐々に
北/北西の風 8kt

TAF: OTHH 040500Z 0406/0512 03012KT CAVOK BECMG 0419/0421 33008KT

4,000以上の空港の気象観測と天気予報(METAR報とTAF報)

利用可能な観測所は地図上に黄色い丸と赤い丸で示す。

丸の上にカーソルを重ねると観測所名を参照できる。

次にクリックすると気象観測と天気予報を参照できる。

マップの切り替え:黒色「×」印の緑ボタンをクリックして拡大、「-」印の緑ボタンをクリックして縮小、緑色の三角印をクリックして隣りの地図に切り替え


METAR-TAF: